sensor_id;sensor_type;location;lat;lon;timestamp;P1;durP1;ratioP1;P2;durP2;ratioP2
19897;SDS011;10111;50.814;4.572;2022-11-27T00:01:00;7.77;;;4.03;;
19897;SDS011;10111;50.814;4.572;2022-11-27T00:03:36;13.10;;;3.30;;
19897;SDS011;10111;50.814;4.572;2022-11-27T00:06:02;7.27;;;3.80;;
19897;SDS011;10111;50.814;4.572;2022-11-27T00:08:28;7.30;;;3.20;;
19897;SDS011;10111;50.814;4.572;2022-11-27T00:10:54;6.80;;;3.40;;
19897;SDS011;10111;50.814;4.572;2022-11-27T00:13:19;7.73;;;3.50;;
19897;SDS011;10111;50.814;4.572;2022-11-27T00:15:45;6.03;;;3.70;;
19897;SDS011;10111;50.814;4.572;2022-11-27T00:18:10;6.90;;;3.70;;
19897;SDS011;10111;50.814;4.572;2022-11-27T00:20:36;7.97;;;4.37;;
19897;SDS011;10111;50.814;4.572;2022-11-27T00:23:02;8.27;;;3.43;;
19897;SDS011;10111;50.814;4.572;2022-11-27T00:25:27;4.10;;;2.80;;
19897;SDS011;10111;50.814;4.572;2022-11-27T00:27:53;6.30;;;3.77;;
19897;SDS011;10111;50.814;4.572;2022-11-27T00:30:18;4.67;;;2.97;;
19897;SDS011;10111;50.814;4.572;2022-11-27T00:32:44;7.47;;;3.63;;
19897;SDS011;10111;50.814;4.572;2022-11-27T00:35:10;8.07;;;2.87;;
19897;SDS011;10111;50.814;4.572;2022-11-27T00:37:35;6.60;;;2.97;;
19897;SDS011;10111;50.814;4.572;2022-11-27T00:40:01;5.03;;;3.63;;
19897;SDS011;10111;50.814;4.572;2022-11-27T00:42:27;4.60;;;2.77;;
19897;SDS011;10111;50.814;4.572;2022-11-27T00:44:52;5.53;;;2.47;;
19897;SDS011;10111;50.814;4.572;2022-11-27T00:47:18;4.27;;;2.73;;
19897;SDS011;10111;50.814;4.572;2022-11-27T00:49:43;6.43;;;3.30;;
19897;SDS011;10111;50.814;4.572;2022-11-27T00:52:10;8.00;;;3.10;;
19897;SDS011;10111;50.814;4.572;2022-11-27T00:54:36;6.63;;;3.30;;
19897;SDS011;10111;50.814;4.572;2022-11-27T00:57:02;4.23;;;2.57;;
19897;SDS011;10111;50.814;4.572;2022-11-27T00:59:28;8.33;;;2.60;;
19897;SDS011;10111;50.814;4.572;2022-11-27T01:01:53;7.10;;;3.10;;
19897;SDS011;10111;50.814;4.572;2022-11-27T01:04:19;6.70;;;2.93;;
19897;SDS011;10111;50.814;4.572;2022-11-27T01:06:44;11.20;;;3.67;;
19897;SDS011;10111;50.814;4.572;2022-11-27T01:09:11;5.17;;;3.10;;
19897;SDS011;10111;50.814;4.572;2022-11-27T01:11:38;9.80;;;4.67;;
19897;SDS011;10111;50.814;4.572;2022-11-27T01:14:05;4.73;;;2.93;;
19897;SDS011;10111;50.814;4.572;2022-11-27T01:16:34;4.87;;;3.67;;
19897;SDS011;10111;50.814;4.572;2022-11-27T01:19:00;10.70;;;2.90;;
19897;SDS011;10111;50.814;4.572;2022-11-27T01:21:28;4.27;;;3.00;;
19897;SDS011;10111;50.814;4.572;2022-11-27T01:23:56;5.83;;;3.17;;
19897;SDS011;10111;50.814;4.572;2022-11-27T01:26:22;4.33;;;2.93;;
19897;SDS011;10111;50.814;4.572;2022-11-27T01:28:52;7.77;;;3.17;;
19897;SDS011;10111;50.814;4.572;2022-11-27T01:31:20;4.67;;;2.57;;
19897;SDS011;10111;50.814;4.572;2022-11-27T01:33:50;10.30;;;3.03;;
19897;SDS011;10111;50.814;4.572;2022-11-27T01:36:17;5.93;;;2.77;;
19897;SDS011;10111;50.814;4.572;2022-11-27T01:38:43;6.77;;;2.80;;
19897;SDS011;10111;50.814;4.572;2022-11-27T01:41:19;4.83;;;2.47;;
19897;SDS011;10111;50.814;4.572;2022-11-27T01:49:04;6.47;;;3.30;;
19897;SDS011;10111;50.814;4.572;2022-11-27T01:51:41;4.63;;;3.17;;
19897;SDS011;10111;50.814;4.572;2022-11-27T01:54:11;5.97;;;2.93;;
19897;SDS011;10111;50.814;4.572;2022-11-27T01:56:39;10.20;;;2.60;;
19897;SDS011;10111;50.814;4.572;2022-11-27T01:59:07;2.23;;;2.03;;
19897;SDS011;10111;50.814;4.572;2022-11-27T02:01:33;3.97;;;2.80;;
19897;SDS011;10111;50.814;4.572;2022-11-27T02:03:59;5.97;;;2.50;;
19897;SDS011;10111;50.814;4.572;2022-11-27T02:06:26;3.43;;;2.17;;
19897;SDS011;10111;50.814;4.572;2022-11-27T02:08:52;3.20;;;2.33;;
19897;SDS011;10111;50.814;4.572;2022-11-27T02:16:57;4.40;;;2.30;;
19897;SDS011;10111;50.814;4.572;2022-11-27T02:19:43;7.17;;;2.43;;
19897;SDS011;10111;50.814;4.572;2022-11-27T02:27:58;5.83;;;2.20;;
19897;SDS011;10111;50.814;4.572;2022-11-27T02:30:51;2.40;;;1.70;;
19897;SDS011;10111;50.814;4.572;2022-11-27T02:33:21;3.23;;;1.50;;
19897;SDS011;10111;50.814;4.572;2022-11-27T02:35:50;3.87;;;2.13;;
19897;SDS011;10111;50.814;4.572;2022-11-27T02:41:25;5.90;;;2.03;;
19897;SDS011;10111;50.814;4.572;2022-11-27T02:43:54;3.30;;;2.23;;
19897;SDS011;10111;50.814;4.572;2022-11-27T02:46:22;5.37;;;3.07;;
19897;SDS011;10111;50.814;4.572;2022-11-27T02:48:50;2.80;;;1.93;;
19897;SDS011;10111;50.814;4.572;2022-11-27T02:51:22;2.37;;;1.73;;
19897;SDS011;10111;50.814;4.572;2022-11-27T02:53:59;5.83;;;2.10;;
19897;SDS011;10111;50.814;4.572;2022-11-27T02:56:30;2.80;;;2.17;;
19897;SDS011;10111;50.814;4.572;2022-11-27T02:58:58;4.13;;;2.07;;
19897;SDS011;10111;50.814;4.572;2022-11-27T03:01:28;6.33;;;2.70;;
19897;SDS011;10111;50.814;4.572;2022-11-27T03:03:58;4.20;;;2.03;;
19897;SDS011;10111;50.814;4.572;2022-11-27T03:06:30;5.13;;;2.67;;
19897;SDS011;10111;50.814;4.572;2022-11-27T03:09:03;3.37;;;1.90;;
19897;SDS011;10111;50.814;4.572;2022-11-27T03:11:33;3.87;;;2.20;;
19897;SDS011;10111;50.814;4.572;2022-11-27T03:14:00;4.47;;;2.20;;
19897;SDS011;10111;50.814;4.572;2022-11-27T03:20:09;4.17;;;2.60;;
19897;SDS011;10111;50.814;4.572;2022-11-27T03:22:07;5.37;;;2.20;;
19897;SDS011;10111;50.814;4.572;2022-11-27T03:24:34;5.43;;;2.57;;
19897;SDS011;10111;50.814;4.572;2022-11-27T03:27:00;5.17;;;2.40;;
19897;SDS011;10111;50.814;4.572;2022-11-27T03:32:16;6.10;;;2.70;;
19897;SDS011;10111;50.814;4.572;2022-11-27T03:34:42;6.43;;;2.63;;
19897;SDS011;10111;50.814;4.572;2022-11-27T03:37:08;5.80;;;2.53;;
19897;SDS011;10111;50.814;4.572;2022-11-27T03:39:34;4.03;;;2.27;;
19897;SDS011;10111;50.814;4.572;2022-11-27T03:42:10;4.97;;;3.40;;
19897;SDS011;10111;50.814;4.572;2022-11-27T03:48:30;7.53;;;2.53;;
19897;SDS011;10111;50.814;4.572;2022-11-27T03:56:35;6.67;;;2.73;;
19897;SDS011;10111;50.814;4.572;2022-11-27T04:01:30;6.87;;;3.60;;
19897;SDS011;10111;50.814;4.572;2022-11-27T04:03:56;4.57;;;2.87;;
19897;SDS011;10111;50.814;4.572;2022-11-27T04:06:21;4.73;;;2.63;;
19897;SDS011;10111;50.814;4.572;2022-11-27T04:08:47;5.90;;;3.00;;
19897;SDS011;10111;50.814;4.572;2022-11-27T04:11:13;5.47;;;2.30;;
19897;SDS011;10111;50.814;4.572;2022-11-27T04:13:39;5.90;;;2.63;;
19897;SDS011;10111;50.814;4.572;2022-11-27T04:16:05;4.77;;;2.37;;
19897;SDS011;10111;50.814;4.572;2022-11-27T04:18:31;7.37;;;3.57;;
19897;SDS011;10111;50.814;4.572;2022-11-27T04:20:57;8.43;;;3.47;;
19897;SDS011;10111;50.814;4.572;2022-11-27T04:23:23;9.60;;;2.83;;
19897;SDS011;10111;50.814;4.572;2022-11-27T04:25:49;6.70;;;3.20;;
19897;SDS011;10111;50.814;4.572;2022-11-27T04:28:14;5.10;;;2.80;;
19897;SDS011;10111;50.814;4.572;2022-11-27T04:30:41;5.97;;;3.50;;
19897;SDS011;10111;50.814;4.572;2022-11-27T04:33:08;4.07;;;2.87;;
19897;SDS011;10111;50.814;4.572;2022-11-27T04:35:33;6.70;;;3.90;;
19897;SDS011;10111;50.814;4.572;2022-11-27T04:37:59;7.43;;;3.27;;
19897;SDS011;10111;50.814;4.572;2022-11-27T04:40:25;5.93;;;2.53;;
19897;SDS011;10111;50.814;4.572;2022-11-27T04:42:50;5.73;;;3.23;;
19897;SDS011;10111;50.814;4.572;2022-11-27T04:45:16;7.67;;;2.93;;
19897;SDS011;10111;50.814;4.572;2022-11-27T04:47:42;7.40;;;3.10;;
19897;SDS011;10111;50.814;4.572;2022-11-27T04:50:08;6.30;;;2.80;;
19897;SDS011;10111;50.814;4.572;2022-11-27T04:52:34;6.37;;;3.10;;
19897;SDS011;10111;50.814;4.572;2022-11-27T04:55:00;7.07;;;3.53;;
19897;SDS011;10111;50.814;4.572;2022-11-27T04:57:26;4.90;;;3.17;;
19897;SDS011;10111;50.814;4.572;2022-11-27T04:59:52;6.47;;;3.20;;
19897;SDS011;10111;50.814;4.572;2022-11-27T05:02:17;9.80;;;2.53;;
19897;SDS011;10111;50.814;4.572;2022-11-27T05:04:43;9.70;;;3.30;;
19897;SDS011;10111;50.814;4.572;2022-11-27T05:07:09;5.57;;;3.50;;
19897;SDS011;10111;50.814;4.572;2022-11-27T05:09:34;7.17;;;2.40;;
19897;SDS011;10111;50.814;4.572;2022-11-27T05:12:00;8.13;;;3.33;;
19897;SDS011;10111;50.814;4.572;2022-11-27T05:14:26;7.83;;;3.17;;
19897;SDS011;10111;50.814;4.572;2022-11-27T05:16:54;4.10;;;2.70;;
19897;SDS011;10111;50.814;4.572;2022-11-27T05:19:23;4.53;;;2.57;;
19897;SDS011;10111;50.814;4.572;2022-11-27T05:21:50;5.23;;;2.77;;
19897;SDS011;10111;50.814;4.572;2022-11-27T05:24:17;6.23;;;3.70;;
19897;SDS011;10111;50.814;4.572;2022-11-27T05:26:44;5.83;;;2.90;;
19897;SDS011;10111;50.814;4.572;2022-11-27T05:29:11;7.20;;;2.93;;
19897;SDS011;10111;50.814;4.572;2022-11-27T05:31:37;6.83;;;3.13;;
19897;SDS011;10111;50.814;4.572;2022-11-27T05:34:03;7.03;;;3.10;;
19897;SDS011;10111;50.814;4.572;2022-11-27T05:36:30;5.33;;;2.97;;
19897;SDS011;10111;50.814;4.572;2022-11-27T05:38:56;6.00;;;3.33;;
19897;SDS011;10111;50.814;4.572;2022-11-27T05:41:22;7.33;;;3.40;;
19897;SDS011;10111;50.814;4.572;2022-11-27T05:43:48;7.73;;;3.20;;
19897;SDS011;10111;50.814;4.572;2022-11-27T05:46:14;6.63;;;3.70;;
19897;SDS011;10111;50.814;4.572;2022-11-27T05:48:42;7.77;;;3.07;;
19897;SDS011;10111;50.814;4.572;2022-11-27T05:51:08;7.33;;;2.83;;
19897;SDS011;10111;50.814;4.572;2022-11-27T05:53:33;6.37;;;2.83;;
19897;SDS011;10111;50.814;4.572;2022-11-27T05:56:03;9.30;;;3.03;;
19897;SDS011;10111;50.814;4.572;2022-11-27T05:58:31;6.17;;;3.07;;
19897;SDS011;10111;50.814;4.572;2022-11-27T06:00:57;7.67;;;3.20;;
19897;SDS011;10111;50.814;4.572;2022-11-27T06:03:23;5.07;;;3.90;;
19897;SDS011;10111;50.814;4.572;2022-11-27T06:05:49;7.57;;;3.23;;
19897;SDS011;10111;50.814;4.572;2022-11-27T06:08:15;6.77;;;3.03;;
19897;SDS011;10111;50.814;4.572;2022-11-27T06:10:41;10.30;;;4.43;;
19897;SDS011;10111;50.814;4.572;2022-11-27T06:13:06;8.03;;;3.63;;
19897;SDS011;10111;50.814;4.572;2022-11-27T06:15:32;5.27;;;2.90;;
19897;SDS011;10111;50.814;4.572;2022-11-27T06:18:00;7.83;;;3.93;;
19897;SDS011;10111;50.814;4.572;2022-11-27T06:20:25;7.20;;;3.00;;
19897;SDS011;10111;50.814;4.572;2022-11-27T06:22:51;10.43;;;3.13;;
19897;SDS011;10111;50.814;4.572;2022-11-27T06:25:16;6.53;;;3.67;;
19897;SDS011;10111;50.814;4.572;2022-11-27T06:27:42;8.37;;;4.20;;
19897;SDS011;10111;50.814;4.572;2022-11-27T06:30:08;4.53;;;3.23;;
19897;SDS011;10111;50.814;4.572;2022-11-27T06:32:34;5.87;;;2.90;;
19897;SDS011;10111;50.814;4.572;2022-11-27T06:34:59;9.03;;;2.60;;
19897;SDS011;10111;50.814;4.572;2022-11-27T06:37:25;7.20;;;3.60;;
19897;SDS011;10111;50.814;4.572;2022-11-27T06:39:51;6.33;;;2.93;;
19897;SDS011;10111;50.814;4.572;2022-11-27T06:42:16;4.40;;;2.90;;
19897;SDS011;10111;50.814;4.572;2022-11-27T06:44:42;7.07;;;3.03;;
19897;SDS011;10111;50.814;4.572;2022-11-27T06:47:08;7.13;;;4.47;;
19897;SDS011;10111;50.814;4.572;2022-11-27T06:49:33;6.73;;;2.77;;
19897;SDS011;10111;50.814;4.572;2022-11-27T06:51:59;6.17;;;2.80;;
19897;SDS011;10111;50.814;4.572;2022-11-27T06:54:27;5.80;;;3.43;;
19897;SDS011;10111;50.814;4.572;2022-11-27T06:56:53;5.20;;;3.23;;
19897;SDS011;10111;50.814;4.572;2022-11-27T06:59:19;6.80;;;3.40;;
19897;SDS011;10111;50.814;4.572;2022-11-27T07:01:44;4.37;;;2.80;;
19897;SDS011;10111;50.814;4.572;2022-11-27T07:04:11;5.33;;;3.10;;
19897;SDS011;10111;50.814;4.572;2022-11-27T07:06:39;5.53;;;3.10;;
19897;SDS011;10111;50.814;4.572;2022-11-27T07:09:06;6.50;;;3.40;;
19897;SDS011;10111;50.814;4.572;2022-11-27T07:11:32;6.30;;;2.80;;
19897;SDS011;10111;50.814;4.572;2022-11-27T07:13:59;5.13;;;3.37;;
19897;SDS011;10111;50.814;4.572;2022-11-27T07:16:27;4.10;;;2.63;;
19897;SDS011;10111;50.814;4.572;2022-11-27T07:18:54;6.80;;;3.47;;
19897;SDS011;10111;50.814;4.572;2022-11-27T07:21:22;5.53;;;3.50;;
19897;SDS011;10111;50.814;4.572;2022-11-27T07:23:49;4.63;;;3.10;;
19897;SDS011;10111;50.814;4.572;2022-11-27T07:26:15;8.77;;;3.20;;
19897;SDS011;10111;50.814;4.572;2022-11-27T07:28:43;4.13;;;2.80;;
19897;SDS011;10111;50.814;4.572;2022-11-27T07:31:13;4.60;;;2.37;;
19897;SDS011;10111;50.814;4.572;2022-11-27T07:33:46;4.23;;;2.97;;
19897;SDS011;10111;50.814;4.572;2022-11-27T07:36:14;4.57;;;3.00;;
19897;SDS011;10111;50.814;4.572;2022-11-27T07:38:41;4.73;;;2.63;;
19897;SDS011;10111;50.814;4.572;2022-11-27T07:41:08;7.13;;;2.83;;
19897;SDS011;10111;50.814;4.572;2022-11-27T07:43:34;3.93;;;2.53;;
19897;SDS011;10111;50.814;4.572;2022-11-27T07:46:07;5.33;;;2.73;;
19897;SDS011;10111;50.814;4.572;2022-11-27T07:48:39;8.30;;;3.60;;
19897;SDS011;10111;50.814;4.572;2022-11-27T07:51:05;5.43;;;3.20;;
19897;SDS011;10111;50.814;4.572;2022-11-27T07:53:34;5.17;;;2.53;;
19897;SDS011;10111;50.814;4.572;2022-11-27T07:56:04;4.30;;;2.70;;
19897;SDS011;10111;50.814;4.572;2022-11-27T07:58:34;6.03;;;3.07;;
19897;SDS011;10111;50.814;4.572;2022-11-27T08:01:00;7.10;;;3.23;;
19897;SDS011;10111;50.814;4.572;2022-11-27T08:03:29;6.03;;;2.80;;
19897;SDS011;10111;50.814;4.572;2022-11-27T08:05:54;4.30;;;2.90;;
19897;SDS011;10111;50.814;4.572;2022-11-27T08:08:20;4.63;;;2.67;;
19897;SDS011;10111;50.814;4.572;2022-11-27T08:10:46;6.17;;;3.10;;
19897;SDS011;10111;50.814;4.572;2022-11-27T08:13:11;4.60;;;2.93;;
19897;SDS011;10111;50.814;4.572;2022-11-27T08:15:37;4.10;;;2.87;;
19897;SDS011;10111;50.814;4.572;2022-11-27T08:18:02;6.93;;;2.87;;
19897;SDS011;10111;50.814;4.572;2022-11-27T08:20:28;7.90;;;3.20;;
19897;SDS011;10111;50.814;4.572;2022-11-27T08:22:54;5.47;;;3.07;;
19897;SDS011;10111;50.814;4.572;2022-11-27T08:25:20;3.97;;;2.70;;
19897;SDS011;10111;50.814;4.572;2022-11-27T08:27:45;4.67;;;2.80;;
19897;SDS011;10111;50.814;4.572;2022-11-27T08:30:12;4.77;;;2.90;;
19897;SDS011;10111;50.814;4.572;2022-11-27T08:32:38;7.23;;;3.07;;
19897;SDS011;10111;50.814;4.572;2022-11-27T08:35:05;5.60;;;3.10;;
19897;SDS011;10111;50.814;4.572;2022-11-27T08:37:31;6.47;;;3.37;;
19897;SDS011;10111;50.814;4.572;2022-11-27T08:39:57;5.60;;;3.77;;
19897;SDS011;10111;50.814;4.572;2022-11-27T08:42:23;6.17;;;3.30;;
19897;SDS011;10111;50.814;4.572;2022-11-27T08:44:48;5.43;;;3.40;;
19897;SDS011;10111;50.814;4.572;2022-11-27T08:47:14;9.47;;;2.70;;
19897;SDS011;10111;50.814;4.572;2022-11-27T08:49:41;6.00;;;3.43;;
19897;SDS011;10111;50.814;4.572;2022-11-27T08:52:07;6.30;;;3.27;;
19897;SDS011;10111;50.814;4.572;2022-11-27T08:54:34;5.20;;;3.63;;
19897;SDS011;10111;50.814;4.572;2022-11-27T08:57:00;8.30;;;3.90;;
19897;SDS011;10111;50.814;4.572;2022-11-27T08:59:25;7.00;;;2.70;;
19897;SDS011;10111;50.814;4.572;2022-11-27T09:01:51;5.37;;;2.80;;
19897;SDS011;10111;50.814;4.572;2022-11-27T09:04:17;5.23;;;2.77;;
19897;SDS011;10111;50.814;4.572;2022-11-27T09:06:42;8.33;;;3.33;;
19897;SDS011;10111;50.814;4.572;2022-11-27T09:09:08;6.50;;;3.23;;
19897;SDS011;10111;50.814;4.572;2022-11-27T09:11:34;5.80;;;3.10;;
19897;SDS011;10111;50.814;4.572;2022-11-27T09:14:01;5.80;;;3.00;;
19897;SDS011;10111;50.814;4.572;2022-11-27T09:16:28;5.73;;;3.57;;
19897;SDS011;10111;50.814;4.572;2022-11-27T09:18:54;4.83;;;3.13;;
19897;SDS011;10111;50.814;4.572;2022-11-27T09:21:21;6.63;;;2.33;;
19897;SDS011;10111;50.814;4.572;2022-11-27T09:23:51;4.37;;;2.70;;
19897;SDS011;10111;50.814;4.572;2022-11-27T09:26:17;4.70;;;3.10;;
19897;SDS011;10111;50.814;4.572;2022-11-27T09:28:43;5.77;;;2.73;;
19897;SDS011;10111;50.814;4.572;2022-11-27T09:31:12;3.10;;;2.77;;
19897;SDS011;10111;50.814;4.572;2022-11-27T09:33:39;3.43;;;2.30;;
19897;SDS011;10111;50.814;4.572;2022-11-27T09:36:09;4.30;;;2.83;;
19897;SDS011;10111;50.814;4.572;2022-11-27T09:38:37;5.63;;;3.20;;
19897;SDS011;10111;50.814;4.572;2022-11-27T09:41:17;7.97;;;3.47;;
19897;SDS011;10111;50.814;4.572;2022-11-27T09:43:53;4.60;;;3.03;;
19897;SDS011;10111;50.814;4.572;2022-11-27T09:46:29;5.83;;;2.97;;
19897;SDS011;10111;50.814;4.572;2022-11-27T09:48:59;5.23;;;3.30;;
19897;SDS011;10111;50.814;4.572;2022-11-27T09:51:30;8.50;;;3.17;;
19897;SDS011;10111;50.814;4.572;2022-11-27T09:56:44;8.93;;;3.63;;
19897;SDS011;10111;50.814;4.572;2022-11-27T09:59:14;8.50;;;4.50;;
19897;SDS011;10111;50.814;4.572;2022-11-27T10:01:42;6.63;;;4.07;;
19897;SDS011;10111;50.814;4.572;2022-11-27T10:04:09;4.80;;;3.97;;
19897;SDS011;10111;50.814;4.572;2022-11-27T10:12:01;4.63;;;3.17;;
19897;SDS011;10111;50.814;4.572;2022-11-27T10:19:56;6.33;;;3.20;;
19897;SDS011;10111;50.814;4.572;2022-11-27T10:22:45;7.70;;;3.73;;
19897;SDS011;10111;50.814;4.572;2022-11-27T10:28:03;5.77;;;4.47;;
19897;SDS011;10111;50.814;4.572;2022-11-27T10:30:53;4.13;;;3.23;;
19897;SDS011;10111;50.814;4.572;2022-11-27T10:33:28;4.70;;;2.93;;
19897;SDS011;10111;50.814;4.572;2022-11-27T10:36:23;7.33;;;3.20;;
19897;SDS011;10111;50.814;4.572;2022-11-27T10:38:54;6.10;;;3.50;;
19897;SDS011;10111;50.814;4.572;2022-11-27T10:41:23;7.57;;;3.43;;
19897;SDS011;10111;50.814;4.572;2022-11-27T10:43:57;4.67;;;3.43;;
19897;SDS011;10111;50.814;4.572;2022-11-27T10:46:29;4.73;;;3.03;;
19897;SDS011;10111;50.814;4.572;2022-11-27T10:48:57;5.27;;;3.07;;
19897;SDS011;10111;50.814;4.572;2022-11-27T10:51:30;4.70;;;3.00;;
19897;SDS011;10111;50.814;4.572;2022-11-27T10:53:58;5.07;;;3.80;;
19897;SDS011;10111;50.814;4.572;2022-11-27T10:59:04;7.00;;;4.10;;
19897;SDS011;10111;50.814;4.572;2022-11-27T11:01:47;6.53;;;3.43;;
19897;SDS011;10111;50.814;4.572;2022-11-27T11:04:14;6.90;;;4.07;;
19897;SDS011;10111;50.814;4.572;2022-11-27T11:06:46;9.80;;;6.83;;
19897;SDS011;10111;50.814;4.572;2022-11-27T11:09:27;17.27;;;9.73;;
19897;SDS011;10111;50.814;4.572;2022-11-27T11:12:15;8.73;;;4.83;;
19897;SDS011;10111;50.814;4.572;2022-11-27T11:14:51;6.47;;;3.87;;
19897;SDS011;10111;50.814;4.572;2022-11-27T11:17:26;6.60;;;3.83;;
19897;SDS011;10111;50.814;4.572;2022-11-27T11:19:58;4.20;;;3.27;;
19897;SDS011;10111;50.814;4.572;2022-11-27T11:22:24;5.60;;;3.30;;
19897;SDS011;10111;50.814;4.572;2022-11-27T11:24:52;6.43;;;3.50;;
19897;SDS011;10111;50.814;4.572;2022-11-27T11:27:20;5.83;;;3.60;;
19897;SDS011;10111;50.814;4.572;2022-11-27T11:32:25;5.03;;;3.33;;
19897;SDS011;10111;50.814;4.572;2022-11-27T11:35:03;6.33;;;3.43;;
19897;SDS011;10111;50.814;4.572;2022-11-27T11:37:33;4.93;;;3.30;;
19897;SDS011;10111;50.814;4.572;2022-11-27T11:42:49;8.43;;;5.30;;
19897;SDS011;10111;50.814;4.572;2022-11-27T11:45:17;6.63;;;3.47;;
19897;SDS011;10111;50.814;4.572;2022-11-27T11:47:45;6.53;;;4.27;;
19897;SDS011;10111;50.814;4.572;2022-11-27T11:50:22;12.60;;;5.07;;
19897;SDS011;10111;50.814;4.572;2022-11-27T11:55:44;8.17;;;3.60;;
19897;SDS011;10111;50.814;4.572;2022-11-27T11:59:01;6.33;;;3.30;;
19897;SDS011;10111;50.814;4.572;2022-11-27T12:10:09;7.37;;;3.77;;
19897;SDS011;10111;50.814;4.572;2022-11-27T12:12:58;6.20;;;3.90;;
19897;SDS011;10111;50.814;4.572;2022-11-27T12:15:53;5.57;;;3.80;;
19897;SDS011;10111;50.814;4.572;2022-11-27T12:21:13;6.47;;;3.10;;
19897;SDS011;10111;50.814;4.572;2022-11-27T12:23:47;5.17;;;3.63;;
19897;SDS011;10111;50.814;4.572;2022-11-27T12:35:33;8.80;;;3.43;;
19897;SDS011;10111;50.814;4.572;2022-11-27T12:38:14;5.67;;;3.80;;
19897;SDS011;10111;50.814;4.572;2022-11-27T12:43:51;4.40;;;3.77;;
19897;SDS011;10111;50.814;4.572;2022-11-27T12:46:33;6.30;;;3.80;;
19897;SDS011;10111;50.814;4.572;2022-11-27T12:49:11;4.90;;;3.30;;
19897;SDS011;10111;50.814;4.572;2022-11-27T12:51:47;5.50;;;3.53;;
19897;SDS011;10111;50.814;4.572;2022-11-27T12:56:47;6.50;;;3.63;;
19897;SDS011;10111;50.814;4.572;2022-11-27T12:59:23;7.07;;;4.13;;
19897;SDS011;10111;50.814;4.572;2022-11-27T13:04:52;9.20;;;5.23;;
19897;SDS011;10111;50.814;4.572;2022-11-27T13:07:33;6.17;;;3.80;;
19897;SDS011;10111;50.814;4.572;2022-11-27T13:10:08;9.23;;;4.30;;
19897;SDS011;10111;50.814;4.572;2022-11-27T13:12:41;7.10;;;4.17;;
19897;SDS011;10111;50.814;4.572;2022-11-27T13:15:18;6.90;;;3.90;;
19897;SDS011;10111;50.814;4.572;2022-11-27T13:17:54;6.70;;;4.43;;
19897;SDS011;10111;50.814;4.572;2022-11-27T13:20:32;6.17;;;4.30;;
19897;SDS011;10111;50.814;4.572;2022-11-27T13:23:02;7.13;;;4.50;;
19897;SDS011;10111;50.814;4.572;2022-11-27T13:25:27;7.13;;;5.07;;
19897;SDS011;10111;50.814;4.572;2022-11-27T13:27:55;6.57;;;4.53;;
19897;SDS011;10111;50.814;4.572;2022-11-27T13:30:23;6.03;;;4.27;;
19897;SDS011;10111;50.814;4.572;2022-11-27T13:32:55;7.70;;;5.13;;
19897;SDS011;10111;50.814;4.572;2022-11-27T13:35:27;8.60;;;4.13;;
19897;SDS011;10111;50.814;4.572;2022-11-27T13:37:55;10.60;;;4.63;;
19897;SDS011;10111;50.814;4.572;2022-11-27T13:40:41;7.03;;;3.63;;
19897;SDS011;10111;50.814;4.572;2022-11-27T13:46:04;6.53;;;5.07;;
19897;SDS011;10111;50.814;4.572;2022-11-27T13:48:35;11.53;;;7.37;;
19897;SDS011;10111;50.814;4.572;2022-11-27T13:51:04;7.30;;;5.57;;
19897;SDS011;10111;50.814;4.572;2022-11-27T13:53:33;13.53;;;6.53;;
19897;SDS011;10111;50.814;4.572;2022-11-27T13:56:01;9.70;;;5.60;;
19897;SDS011;10111;50.814;4.572;2022-11-27T13:58:29;8.23;;;5.90;;
19897;SDS011;10111;50.814;4.572;2022-11-27T14:01:16;10.13;;;5.77;;
19897;SDS011;10111;50.814;4.572;2022-11-27T14:03:46;7.37;;;4.20;;
19897;SDS011;10111;50.814;4.572;2022-11-27T14:06:14;11.40;;;6.70;;
19897;SDS011;10111;50.814;4.572;2022-11-27T14:08:47;5.07;;;3.60;;
19897;SDS011;10111;50.814;4.572;2022-11-27T14:11:15;8.40;;;4.50;;
19897;SDS011;10111;50.814;4.572;2022-11-27T14:13:51;6.77;;;4.93;;
19897;SDS011;10111;50.814;4.572;2022-11-27T14:16:35;5.17;;;3.40;;
19897;SDS011;10111;50.814;4.572;2022-11-27T14:19:04;7.13;;;4.47;;
19897;SDS011;10111;50.814;4.572;2022-11-27T14:21:46;5.37;;;4.00;;
19897;SDS011;10111;50.814;4.572;2022-11-27T14:24:22;4.83;;;3.37;;
19897;SDS011;10111;50.814;4.572;2022-11-27T14:26:58;7.43;;;3.60;;
19897;SDS011;10111;50.814;4.572;2022-11-27T14:29:27;6.87;;;3.87;;
19897;SDS011;10111;50.814;4.572;2022-11-27T14:31:54;6.70;;;3.83;;
19897;SDS011;10111;50.814;4.572;2022-11-27T14:34:28;6.37;;;4.10;;
19897;SDS011;10111;50.814;4.572;2022-11-27T14:36:58;6.17;;;3.20;;
19897;SDS011;10111;50.814;4.572;2022-11-27T14:39:31;6.77;;;3.77;;
19897;SDS011;10111;50.814;4.572;2022-11-27T14:41:58;5.70;;;4.03;;
19897;SDS011;10111;50.814;4.572;2022-11-27T14:44:29;5.13;;;3.57;;
19897;SDS011;10111;50.814;4.572;2022-11-27T14:46:56;7.53;;;5.37;;
19897;SDS011;10111;50.814;4.572;2022-11-27T14:49:25;6.63;;;3.60;;
19897;SDS011;10111;50.814;4.572;2022-11-27T14:51:51;8.63;;;3.33;;
19897;SDS011;10111;50.814;4.572;2022-11-27T14:54:22;11.97;;;6.90;;
19897;SDS011;10111;50.814;4.572;2022-11-27T14:56:50;7.47;;;4.73;;
19897;SDS011;10111;50.814;4.572;2022-11-27T14:59:18;6.60;;;3.73;;
19897;SDS011;10111;50.814;4.572;2022-11-27T15:04:34;4.67;;;3.00;;
19897;SDS011;10111;50.814;4.572;2022-11-27T15:07:05;6.40;;;3.80;;
19897;SDS011;10111;50.814;4.572;2022-11-27T15:09:42;6.03;;;3.97;;
19897;SDS011;10111;50.814;4.572;2022-11-27T15:12:16;6.70;;;3.60;;
19897;SDS011;10111;50.814;4.572;2022-11-27T15:14:45;6.73;;;3.53;;
19897;SDS011;10111;50.814;4.572;2022-11-27T15:17:31;5.23;;;3.43;;
19897;SDS011;10111;50.814;4.572;2022-11-27T15:20:09;5.33;;;3.40;;
19897;SDS011;10111;50.814;4.572;2022-11-27T15:22:47;4.77;;;3.27;;
19897;SDS011;10111;50.814;4.572;2022-11-27T15:25:27;4.77;;;3.47;;
19897;SDS011;10111;50.814;4.572;2022-11-27T15:27:59;6.40;;;3.50;;
19897;SDS011;10111;50.814;4.572;2022-11-27T15:30:25;4.63;;;3.07;;
19897;SDS011;10111;50.814;4.572;2022-11-27T15:32:51;5.37;;;3.57;;
19897;SDS011;10111;50.814;4.572;2022-11-27T15:35:29;5.70;;;3.53;;
19897;SDS011;10111;50.814;4.572;2022-11-27T15:38:06;4.40;;;2.77;;
19897;SDS011;10111;50.814;4.572;2022-11-27T15:40:35;4.80;;;3.30;;
19897;SDS011;10111;50.814;4.572;2022-11-27T15:43:12;5.20;;;3.00;;
19897;SDS011;10111;50.814;4.572;2022-11-27T15:45:39;5.30;;;3.30;;
19897;SDS011;10111;50.814;4.572;2022-11-27T15:48:10;5.63;;;2.90;;
19897;SDS011;10111;50.814;4.572;2022-11-27T15:50:39;5.77;;;3.70;;
19897;SDS011;10111;50.814;4.572;2022-11-27T15:53:05;2.93;;;2.40;;
19897;SDS011;10111;50.814;4.572;2022-11-27T15:55:31;5.73;;;2.90;;
19897;SDS011;10111;50.814;4.572;2022-11-27T15:57:57;6.80;;;4.03;;
19897;SDS011;10111;50.814;4.572;2022-11-27T16:00:23;4.37;;;3.17;;
19897;SDS011;10111;50.814;4.572;2022-11-27T16:02:50;5.27;;;3.33;;
19897;SDS011;10111;50.814;4.572;2022-11-27T16:05:16;4.50;;;2.80;;
19897;SDS011;10111;50.814;4.572;2022-11-27T16:07:42;3.53;;;2.70;;
19897;SDS011;10111;50.814;4.572;2022-11-27T16:10:08;3.63;;;3.20;;
19897;SDS011;10111;50.814;4.572;2022-11-27T16:12:34;5.03;;;3.30;;
19897;SDS011;10111;50.814;4.572;2022-11-27T16:15:00;3.27;;;2.57;;
19897;SDS011;10111;50.814;4.572;2022-11-27T16:17:26;4.87;;;3.43;;
19897;SDS011;10111;50.814;4.572;2022-11-27T16:19:51;3.83;;;3.17;;
19897;SDS011;10111;50.814;4.572;2022-11-27T16:22:17;3.70;;;2.93;;
19897;SDS011;10111;50.814;4.572;2022-11-27T16:24:43;3.93;;;3.00;;
19897;SDS011;10111;50.814;4.572;2022-11-27T16:27:08;3.87;;;2.93;;
19897;SDS011;10111;50.814;4.572;2022-11-27T16:29:34;3.83;;;2.77;;
19897;SDS011;10111;50.814;4.572;2022-11-27T16:32:00;3.30;;;2.40;;
19897;SDS011;10111;50.814;4.572;2022-11-27T16:34:26;3.60;;;2.80;;
19897;SDS011;10111;50.814;4.572;2022-11-27T16:36:52;5.30;;;2.73;;
19897;SDS011;10111;50.814;4.572;2022-11-27T16:39:17;4.93;;;2.97;;